Time;durP1;ratioP1;P1;durP2;ratioP2;P2;SDS_P1;SDS_P2;PMS_P1;PMS_P2;Temp;Humidity;BMP_temperature;BMP_pressure;BME280_temperature;BME280_humidity;BME280_pressure;Samples;Min_cycle;Max_cycle;Signal;HPM_P1;HPM_P2
2022/08/04 00:01:10;;;;;;;0.38;0.38;;;18.80;99.90;;;;;;4976239;28;20035;-85
2022/08/04 00:04:02;;;;;;;1.67;0.55;;;18.90;99.90;;;;;;4985837;28;20026;-78
2022/08/04 00:06:51;;;;;;;2.17;0.80;;;18.90;99.90;;;;;;5003313;28;20022;-84
2022/08/04 00:09:42;;;;;;;0.73;0.25;;;18.80;99.90;;;;;;4986351;28;20154;-79
2022/08/04 00:12:11;;;;;;;0.40;0.30;;;18.60;99.90;;;;;;4986243;28;20023;-77
2022/08/04 00:14:45;;;;;;;0.52;0.52;;;18.50;99.90;;;;;;5003242;28;20022;-77
2022/08/04 00:17:11;;;;;;;0.20;0.20;;;18.50;99.90;;;;;;5003027;28;20030;-79
2022/08/04 00:19:46;;;;;;;0.88;0.88;;;18.40;99.90;;;;;;5003167;28;20046;-81
2022/08/04 00:22:12;;;;;;;0.57;0.52;;;18.40;99.90;;;;;;4986071;28;20030;-77
2022/08/04 00:24:39;;;;;;;0.40;0.40;;;18.30;99.90;;;;;;5002884;28;20296;-83
2022/08/04 00:27:06;;;;;;;0.63;0.55;;;18.30;99.90;;;;;;5003303;28;20026;-78
2022/08/04 00:29:33;;;;;;;0.40;0.40;;;18.20;99.90;;;;;;5003000;28;20022;-79
2022/08/04 00:32:01;;;;;;;0.52;0.52;;;18.20;99.90;;;;;;5002765;28;20050;-78
2022/08/04 00:34:30;;;;;;;0.82;0.82;;;18.00;99.90;;;;;;5002794;28;20037;-80
2022/08/04 00:36:57;;;;;;;0.45;0.45;;;18.00;99.90;;;;;;4985124;28;20365;-77
2022/08/04 00:39:24;;;;;;;0.32;0.32;;;18.00;99.90;;;;;;5002595;28;20085;-77
2022/08/04 00:42:28;;;;;;;0.65;0.65;;;18.00;99.90;;;;;;4985894;28;20026;-86
2022/08/04 00:45:22;;;;;;;4.15;0.38;;;18.00;99.90;;;;;;4985554;28;20022;-77
2022/08/04 00:48:03;;;;;;;0.28;0.28;;;18.10;99.90;;;;;;5002897;28;20034;-83
2022/08/04 00:50:50;;;;;;;0.77;0.77;;;18.00;99.90;;;;;;5002695;28;20029;-77
2022/08/04 00:53:37;;;;;;;0.50;0.50;;;18.00;99.90;;;;;;4985726;28;20100;-79
2022/08/04 00:56:14;;;;;;;0.77;0.77;;;18.00;99.90;;;;;;5002544;28;20018;-81
2022/08/04 00:59:09;;;;;;;0.95;0.60;;;18.00;99.90;;;;;;4985120;28;20084;-78
2022/08/04 01:01:37;;;;;;;0.30;0.30;;;18.00;99.90;;;;;;5000098;28;20045;-85
2022/08/04 01:04:13;;;;;;;0.70;0.50;;;18.00;99.90;;;;;;5003068;28;20031;-87
2022/08/04 01:07:04;;;;;;;0.57;0.57;;;18.00;99.90;;;;;;5003288;28;20353;-82
2022/08/04 01:09:53;;;;;;;0.95;0.60;;;18.10;99.90;;;;;;4985348;28;20038;-81
2022/08/04 01:12:24;;;;;;;1.77;0.55;;;18.10;99.90;;;;;;4985470;28;20030;-83
2022/08/04 01:15:16;;;;;;;0.35;0.35;;;18.10;99.90;;;;;;4986758;28;20102;-84
2022/08/04 01:18:00;;;;;;;0.68;0.57;;;18.10;99.90;;;;;;5003818;28;20046;-85
2022/08/04 01:20:34;;;;;;;1.95;0.50;;;18.10;99.90;;;;;;5006480;28;20073;-78
2022/08/04 01:23:30;;;;;;;0.30;0.30;;;18.10;99.90;;;;;;5006786;28;20049;-82
2022/08/04 01:26:12;;;;;;;0.43;0.43;;;18.00;99.90;;;;;;5006722;28;20018;-78
2022/08/04 01:28:56;;;;;;;0.43;0.43;;;18.00;99.90;;;;;;5006206;28;20250;-79
2022/08/04 01:31:58;;;;;;;0.90;0.85;;;17.90;99.90;;;;;;4989001;28;20030;-83
2022/08/04 01:34:27;;;;;;;1.70;0.65;;;17.90;99.90;;;;;;4983725;28;20080;-85
2022/08/04 01:37:39;;;;;;;0.68;0.55;;;17.90;99.90;;;;;;5005162;28;20053;-78
2022/08/04 01:40:07;;;;;;;1.45;0.63;;;17.80;99.90;;;;;;4984809;28;20034;-79
2022/08/04 01:42:35;;;;;;;0.52;0.52;;;17.80;99.90;;;;;;4989032;28;20026;-79
2022/08/04 01:45:09;;;;;;;0.35;0.35;;;17.80;99.90;;;;;;5006042;28;20556;-77
2022/08/04 01:47:40;;;;;;;1.02;0.50;;;17.80;99.90;;;;;;4988529;28;20539;-78
2022/08/04 01:50:11;;;;;;;1.30;0.32;;;17.80;99.90;;;;;;5006605;28;20023;-85
2022/08/04 01:52:39;;;;;;;0.47;0.47;;;17.70;99.90;;;;;;5005766;28;20022;-86
2022/08/04 01:55:09;;;;;;;1.33;0.55;;;17.60;99.90;;;;;;5005344;28;20049;-79
2022/08/04 01:57:44;;;;;;;;;;;17.60;99.90;;;;;;4988851;28;20045;-78
2022/08/04 02:00:13;;;;;;;0.38;0.38;;;17.60;99.90;;;;;;5005589;28;19908;-86
2022/08/04 02:02:39;;;;;;;0.77;0.77;;;17.50;99.90;;;;;;4988094;28;20036;-77
2022/08/04 02:05:08;;;;;;;0.70;0.70;;;17.60;99.90;;;;;;4988351;28;20251;-85
2022/08/04 02:07:55;;;;;;;0.88;0.88;;;17.50;99.90;;;;;;4988216;28;20254;-79
2022/08/04 02:10:29;;;;;;;0.30;0.30;;;17.50;99.90;;;;;;4988068;28;20139;-84
2022/08/04 02:13:23;;;;;;;1.17;0.50;;;17.40;99.90;;;;;;4988021;28;20026;-78
2022/08/04 02:16:01;;;;;;;1.05;1.05;;;17.30;99.90;;;;;;4983672;28;20045;-81
2022/08/04 02:18:31;;;;;;;0.28;0.28;;;17.40;99.90;;;;;;4988130;28;20030;-86
2022/08/04 02:20:59;;;;;;;1.35;0.30;;;17.40;99.90;;;;;;5005515;28;20046;-78
2022/08/04 02:23:34;;;;;;;0.40;0.40;;;17.30;99.90;;;;;;5005477;28;20203;-77
2022/08/04 02:26:05;;;;;;;1.00;0.98;;;17.30;99.90;;;;;;4987779;28;20093;-77
2022/08/04 02:28:34;;;;;;;0.70;0.52;;;17.10;99.90;;;;;;5005014;28;20026;-82
2022/08/04 02:31:03;;;;;;;0.97;0.80;;;17.00;99.90;;;;;;4987463;28;20018;-78
2022/08/04 02:33:43;;;;;;;0.60;0.60;;;16.90;99.90;;;;;;5004992;28;20255;-86
2022/08/04 02:36:17;;;;;;;1.17;0.60;;;16.90;99.90;;;;;;5004930;28;20030;-84
2022/08/04 02:38:54;;;;;;;0.50;0.50;;;16.90;99.90;;;;;;4987557;28;20318;-82
2022/08/04 02:41:25;;;;;;;0.85;0.85;;;17.00;99.90;;;;;;5005382;28;20056;-78
2022/08/04 02:43:54;;;;;;;0.80;0.70;;;17.00;99.90;;;;;;4987789;28;20196;-84
2022/08/04 02:46:21;;;;;;;0.35;0.35;;;17.00;99.90;;;;;;4987922;28;20057;-79
2022/08/04 02:48:49;;;;;;;0.63;0.63;;;17.10;99.90;;;;;;4987514;28;20036;-80
2022/08/04 02:51:26;;;;;;;1.15;0.50;;;17.10;99.90;;;;;;4987022;28;20038;-82
2022/08/04 02:53:55;;;;;;;1.58;0.30;;;17.10;99.90;;;;;;4987740;28;20334;-78
2022/08/04 02:56:21;;;;;;;0.77;0.47;;;17.10;99.90;;;;;;4986844;28;20035;-80
2022/08/04 02:58:52;;;;;;;1.13;1.08;;;17.10;99.90;;;;;;5004404;28;20026;-80
2022/08/04 03:01:20;;;;;;;3.72;1.60;;;17.10;99.90;;;;;;4986855;28;20468;-78
2022/08/04 03:04:19;;;;;;;0.55;0.55;;;17.10;99.90;;;;;;4986981;28;20026;-78
2022/08/04 03:07:11;;;;;;;;;;;17.10;99.90;;;;;;4987473;28;20282;-86
2022/08/04 03:10:14;;;;;;;0.20;0.20;;;17.10;99.90;;;;;;4982843;28;19909;-78
2022/08/04 03:13:17;;;;;;;0.50;0.50;;;17.00;99.90;;;;;;4986975;28;20029;-79
2022/08/04 03:15:57;;;;;;;0.57;0.57;;;16.90;99.90;;;;;;5004024;28;20033;-84
2022/08/04 03:18:48;;;;;;;1.70;0.50;;;16.80;99.90;;;;;;4986939;28;20042;-86
2022/08/04 03:21:32;;;;;;;0.40;0.40;;;16.80;99.90;;;;;;4986652;28;20085;-78
2022/08/04 03:24:42;;;;;;;0.70;0.70;;;16.70;99.90;;;;;;4986838;28;20054;-78
2022/08/04 03:27:30;;;;;;;1.35;1.05;;;16.70;99.90;;;;;;4971901;28;20081;-80
2022/08/04 03:30:12;;;;;;;1.48;1.08;;;16.70;99.90;;;;;;4986882;28;20060;-82
2022/08/04 03:32:59;;;;;;;0.70;0.70;;;16.60;99.90;;;;;;5004160;28;20030;-77
2022/08/04 03:35:52;;;;;;;0.85;0.85;;;16.50;99.90;;;;;;5003726;28;20057;-77
2022/08/04 03:38:39;;;;;;;0.63;0.63;;;16.40;99.90;;;;;;4985221;28;20267;-78
2022/08/04 03:41:27;;;;;;;0.68;0.65;;;16.40;99.90;;;;;;4986924;28;20026;-78
2022/08/04 03:44:17;;;;;;;0.65;0.65;;;16.40;99.90;;;;;;4986314;28;20014;-79
2022/08/04 03:46:54;;;;;;;1.27;0.68;;;16.40;99.90;;;;;;5004188;28;20054;-76
2022/08/04 03:49:57;;;;;;;1.42;0.82;;;16.50;99.90;;;;;;5006407;28;20022;-82
2022/08/04 03:55:24;;;;;;;0.60;0.60;;;16.40;99.90;;;;;;5003721;28;20029;-86
2022/08/04 03:57:50;;;;;;;0.93;0.93;;;16.30;99.90;;;;;;5003758;28;20060;-82
2022/08/04 04:00:37;;;;;;;1.48;1.38;;;16.30;99.90;;;;;;4986397;28;20315;-84
2022/08/04 04:03:40;;;;;;;0.90;0.90;;;16.20;99.90;;;;;;4986376;28;20258;-83
2022/08/04 04:06:31;;;;;;;0.38;0.38;;;16.20;99.90;;;;;;4986018;28;20022;-86
2022/08/04 04:09:08;;;;;;;1.20;1.02;;;16.10;99.90;;;;;;5003401;28;20081;-78
2022/08/04 04:11:43;;;;;;;0.47;0.47;;;16.20;99.90;;;;;;4986358;28;20026;-77
2022/08/04 04:14:28;;;;;;;0.88;0.80;;;16.20;99.90;;;;;;4985849;28;20034;-78
2022/08/04 04:17:05;;;;;;;0.47;0.47;;;16.20;99.90;;;;;;4985670;28;20026;-86
2022/08/04 04:19:54;;;;;;;0.52;0.52;;;16.20;99.90;;;;;;4985995;28;20033;-80
2022/08/04 04:23:12;;;;;;;0.38;0.38;;;16.20;99.90;;;;;;4977911;28;20030;-84
2022/08/04 04:26:13;;;;;;;0.32;0.32;;;16.20;99.90;;;;;;4943834;29;20328;-85
2022/08/04 04:29:00;;;;;;;0.30;0.30;;;16.20;99.90;;;;;;4972373;28;20042;-81
2022/08/04 04:31:44;;;;;;;0.52;0.52;;;16.10;99.90;;;;;;4985665;28;20360;-78
2022/08/04 04:34:19;;;;;;;0.60;0.57;;;16.10;99.90;;;;;;5002897;28;20073;-78
2022/08/04 04:37:11;;;;;;;1.02;1.02;;;16.10;99.90;;;;;;4985367;28;20080;-85
2022/08/04 04:39:54;;;;;;;0.45;0.45;;;16.20;99.90;;;;;;4998638;28;20334;-77
2022/08/04 04:42:29;;;;;;;1.02;0.93;;;16.30;99.90;;;;;;5002681;28;20032;-83
2022/08/04 04:45:19;;;;;;;0.40;0.40;;;16.30;99.90;;;;;;4985853;28;20030;-86
2022/08/04 04:48:13;;;;;;;0.55;0.55;;;16.40;99.90;;;;;;5003027;28;20022;-85
2022/08/04 04:51:04;;;;;;;1.65;0.93;;;16.50;99.90;;;;;;4985299;28;20162;-80
2022/08/04 04:54:12;;;;;;;0.35;0.35;;;16.50;99.90;;;;;;4985406;28;20033;-84
2022/08/04 04:57:03;;;;;;;0.80;0.80;;;16.50;99.90;;;;;;4986118;28;20042;-78
2022/08/04 04:59:33;;;;;;;0.90;0.20;;;16.70;99.90;;;;;;4985073;28;20026;-78
2022/08/04 05:02:01;;;;;;;0.50;0.50;;;16.70;99.90;;;;;;5002996;28;20050;-87
2022/08/04 05:04:52;;;;;;;0.77;0.45;;;16.80;99.90;;;;;;4985426;28;20029;-78
2022/08/04 05:07:17;;;;;;;1.23;0.57;;;16.90;99.90;;;;;;5003283;28;20359;-79
2022/08/04 05:10:13;;;;;;;0.60;0.60;;;16.90;99.90;;;;;;4985628;28;20034;-78
2022/08/04 05:12:50;;;;;;;0.90;0.52;;;17.10;99.90;;;;;;4985969;28;20022;-78
2022/08/04 05:15:17;;;;;;;2.25;0.50;;;17.10;99.90;;;;;;4985263;28;20029;-78
2022/08/04 05:17:50;;;;;;;0.47;0.47;;;17.20;99.90;;;;;;4985517;28;20037;-78
2022/08/04 05:20:24;;;;;;;0.50;0.50;;;17.30;99.90;;;;;;4985492;28;20349;-78
2022/08/04 05:22:58;;;;;;;0.90;0.68;;;17.30;99.90;;;;;;5002827;28;20318;-83
2022/08/04 05:25:50;;;;;;;1.35;0.80;;;17.40;99.90;;;;;;4985632;28;20077;-85
2022/08/04 05:28:24;;;;;;;0.45;0.45;;;17.50;99.90;;;;;;4985311;28;20077;-82
2022/08/04 05:30:58;;;;;;;1.13;0.50;;;17.60;99.90;;;;;;4985006;28;20023;-78
2022/08/04 05:33:30;;;;;;;0.75;0.50;;;17.70;99.90;;;;;;4985050;28;20030;-79
2022/08/04 05:35:59;;;;;;;0.30;0.30;;;17.90;99.90;;;;;;4986665;28;20044;-83
2022/08/04 05:38:36;;;;;;;0.82;0.82;;;18.00;99.90;;;;;;4986437;28;20338;-78
2022/08/04 05:41:03;;;;;;;0.60;0.60;;;18.20;99.90;;;;;;5003449;28;20094;-78
2022/08/04 05:43:29;;;;;;;0.60;0.60;;;20.70;99.90;;;;;;4986567;28;20114;-78
2022/08/04 05:45:56;;;;;;;2.88;0.77;;;18.50;99.90;;;;;;4986477;28;20021;-78
2022/08/04 05:48:23;;;;;;;0.47;0.47;;;18.70;99.90;;;;;;4986416;28;20022;-79
2022/08/04 05:50:51;;;;;;;0.45;0.45;;;18.80;99.90;;;;;;5003874;28;20021;-78
2022/08/04 05:53:17;;;;;;;0.43;0.40;;;19.00;99.90;;;;;;4986460;28;20064;-78
2022/08/04 05:55:45;;;;;;;0.65;0.65;;;19.10;99.90;;;;;;5003890;28;20015;-82
2022/08/04 05:58:12;;;;;;;0.40;0.40;;;19.20;99.90;;;;;;5003703;28;20212;-84
2022/08/04 06:00:40;;;;;;;2.13;0.98;;;19.10;99.90;;;;;;4987423;28;20018;-80
2022/08/04 06:03:08;;;;;;;1.67;0.40;;;19.50;99.90;;;;;;4989915;28;20109;-78
2022/08/04 06:05:34;;;;;;;2.65;1.55;;;19.70;99.90;;;;;;5007229;28;20306;-78
2022/08/04 06:08:00;;;;;;;0.85;0.85;;;19.90;99.90;;;;;;4989653;28;20291;-80
2022/08/04 06:10:26;;;;;;;0.80;0.80;;;20.10;99.90;;;;;;5007105;28;20057;-83
2022/08/04 06:12:55;;;;;;;1.20;1.00;;;20.30;99.90;;;;;;4988683;28;20019;-78
2022/08/04 06:15:24;;;;;;;4.90;2.55;;;20.80;99.90;;;;;;5007594;28;20029;-75
2022/08/04 06:18:00;;;;;;;1.90;1.48;;;20.60;99.90;;;;;;5006297;28;20214;-85
2022/08/04 06:20:29;;;;;;;3.15;0.75;;;20.70;99.90;;;;;;5006974;28;20018;-78
2022/08/04 06:22:58;;;;;;;0.73;0.73;;;20.80;99.90;;;;;;4989525;28;20087;-83
2022/08/04 06:25:32;;;;;;;1.05;1.05;;;20.90;99.90;;;;;;5006858;28;20045;-78
2022/08/04 06:28:04;;;;;;;0.98;0.82;;;21.00;99.90;;;;;;4989650;28;20025;-78
2022/08/04 06:30:31;;;;;;;0.55;0.55;;;21.20;99.90;;;;;;5005444;28;20046;-83
2022/08/04 06:33:01;;;;;;;1.05;0.95;;;21.50;99.90;;;;;;5002466;28;20030;-79
2022/08/04 06:35:28;;;;;;;5.30;0.60;;;21.80;99.90;;;;;;4982802;28;20222;-76
2022/08/04 06:37:56;;;;;;;0.60;0.60;;;22.20;99.90;;;;;;5005446;28;20046;-75
2022/08/04 06:40:23;;;;;;;0.40;0.40;;;22.50;99.90;;;;;;5006006;28;20045;-77
2022/08/04 06:42:50;;;;;;;0.52;0.52;;;24.60;99.90;;;;;;4997721;28;20026;-78
2022/08/04 06:45:18;;;;;;;0.20;0.20;;;22.60;99.90;;;;;;4983151;28;20338;-86
2022/08/04 06:47:46;;;;;;;0.47;0.47;;;22.70;99.90;;;;;;5001856;28;20073;-81
2022/08/04 06:50:12;;;;;;;0.60;0.60;;;22.80;99.90;;;;;;5002474;28;20018;-81
2022/08/04 06:52:39;;;;;;;0.47;0.22;;;22.90;99.90;;;;;;4999172;28;20089;-78
2022/08/04 06:55:06;;;;;;;2.42;0.95;;;22.90;99.90;;;;;;4998988;28;20085;-79
2022/08/04 06:57:33;;;;;;;0.45;0.43;;;22.90;99.90;;;;;;4998489;28;20034;-81
2022/08/04 07:00:04;;;;;;;0.50;0.40;;;23.00;99.90;;;;;;5001433;28;20022;-78
2022/08/04 07:02:37;;;;;;;0.40;0.40;;;23.20;99.90;;;;;;4985259;28;20068;-82
2022/08/04 07:05:05;;;;;;;0.20;0.20;;;23.50;99.90;;;;;;5004726;28;20023;-78
2022/08/04 07:07:35;;;;;;;0.68;0.50;;;24.30;99.90;;;;;;4984877;28;20030;-80
2022/08/04 07:10:01;;;;;;;0.68;0.43;;;26.10;99.90;;;;;;5004544;28;20022;-79
2022/08/04 07:12:27;;;;;;;0.20;0.20;;;28.00;99.90;;;;;;4983576;28;20031;-77
2022/08/04 07:14:53;;;;;;;0.45;0.45;;;29.80;85.50;;;;;;4981751;28;20045;-77
2022/08/04 07:17:20;;;;;;;0.45;0.40;;;31.40;70.70;;;;;;4978457;28;20084;-79
2022/08/04 07:19:47;;;;;;;0.47;0.47;;;32.80;63.80;;;;;;5001685;28;20022;-82
2022/08/04 07:22:14;;;;;;;0.65;0.38;;;33.30;61.30;;;;;;5008834;28;20018;-84
2022/08/04 07:24:41;;;;;;;0.15;0.15;;;34.40;56.70;;;;;;5003701;28;20045;-84
2022/08/04 07:27:07;;;;;;;0.32;0.20;;;34.40;57.40;;;;;;4988948;28;20097;-86
2022/08/04 07:29:36;;;;;;;0.47;0.47;;;35.30;56.00;;;;;;4988227;28;20049;-83
2022/08/04 07:32:03;;;;;;;9.38;0.50;;;35.40;54.90;;;;;;5003325;28;20034;-83
2022/08/04 07:34:29;;;;;;;0.28;0.28;;;35.60;54.80;;;;;;4986966;28;20018;-77
2022/08/04 07:36:58;;;;;;;4.88;2.05;;;36.50;53.10;;;;;;5002312;28;20451;-78
2022/08/04 07:39:27;;;;;;;1.55;0.40;;;36.90;51.90;;;;;;4979728;28;20019;-77
2022/08/04 07:41:54;;;;;;;0.20;0.20;;;37.10;50.50;;;;;;5000646;28;20033;-78
2022/08/04 07:44:20;;;;;;;1.05;0.45;;;37.80;49.30;;;;;;5002098;28;20014;-80
2022/08/04 07:46:46;;;;;;;0.20;0.20;;;37.60;48.70;;;;;;5000902;28;20019;-81
2022/08/04 07:49:13;;;;;;;0.30;0.30;;;37.60;48.70;;;;;;5005049;28;20022;-78
2022/08/04 07:51:39;;;;;;;0.30;0.30;;;37.40;47.90;;;;;;5005444;28;20045;-78
2022/08/04 07:54:08;;;;;;;0.80;0.43;;;38.00;49.20;;;;;;4987115;28;20089;-78
2022/08/04 07:56:39;;;;;;;0.13;0.13;;;37.50;49.20;;;;;;4987886;28;20048;-77
2022/08/04 07:59:06;;;;;;;0.50;0.50;;;37.40;49.30;;;;;;5004484;28;20030;-78
2022/08/04 08:01:35;;;;;;;0.35;0.35;;;37.60;49.70;;;;;;5004837;28;20022;-80
2022/08/04 08:04:04;;;;;;;0.22;0.22;;;38.00;49.30;;;;;;5005077;28;20022;-80
2022/08/04 08:06:34;;;;;;;0.50;0.47;;;37.90;49.40;;;;;;5005385;28;20050;-77
2022/08/04 08:09:06;;;;;;;0.20;0.20;;;37.50;50.40;;;;;;5004854;28;20026;-78
2022/08/04 08:11:31;;;;;;;0.30;0.28;;;37.40;49.40;;;;;;5005911;28;20044;-85
2022/08/04 08:13:58;;;;;;;0.50;0.50;;;36.80;50.90;;;;;;4987387;28;20346;-76
2022/08/04 08:16:24;;;;;;;0.95;0.55;;;36.10;51.60;;;;;;5004625;28;20018;-77
2022/08/04 08:18:50;;;;;;;0.85;0.52;;;35.80;51.40;;;;;;5004345;28;20027;-77
2022/08/04 08:21:19;;;;;;;0.52;0.20;;;35.40;52.00;;;;;;5004719;28;20159;-77
2022/08/04 08:23:45;;;;;;;1.42;1.38;;;;;;;;;;4999030;28;20050;-75
2022/08/04 08:26:11;;;;;;;0.40;0.40;;;35.50;50.90;;;;;;4995133;28;20030;-79
2022/08/04 08:28:37;;;;;;;0.20;0.20;;;35.00;52.30;;;;;;5003650;28;20211;-75
2022/08/04 08:31:02;;;;;;;2.08;0.40;;;35.50;51.80;;;;;;5004440;28;20022;-76
2022/08/04 08:33:28;;;;;;;0.43;0.43;;;36.20;51.30;;;;;;4987053;28;20090;-78
2022/08/04 08:36:04;;;;;;;2.25;1.42;;;35.50;51.50;;;;;;4995989;28;20026;-81
2022/08/04 08:38:57;;;;;;;0.45;0.35;;;35.50;52.60;;;;;;4986779;28;20046;-82
2022/08/04 08:41:48;;;;;;;0.30;0.30;;;36.00;52.10;;;;;;4993614;28;20030;-80
2022/08/04 08:44:26;;;;;;;0.10;0.10;;;36.60;50.70;;;;;;4985493;28;20029;-81
2022/08/04 08:47:20;;;;;;;1.10;1.10;;;36.20;49.30;;;;;;4998583;28;20327;-85
2022/08/04 08:50:27;;;;;;;0.50;0.50;;;36.00;51.40;;;;;;4994247;28;20092;-81
2022/08/04 08:53:01;;;;;;;1.30;0.38;;;35.90;52.10;;;;;;5000293;28;20060;-76
2022/08/04 08:55:39;;;;;;;0.20;0.20;;;35.50;49.70;;;;;;4986349;28;20018;-75
2022/08/04 08:58:34;;;;;;;0.27;0.27;;;35.40;49.50;;;;;;4994728;28;20030;-83
2022/08/04 09:01:15;;;;;;;0.60;0.60;;;35.50;49.20;;;;;;5001453;28;20270;-76
2022/08/04 09:04:26;;;;;;;0.43;0.43;;;35.50;49.70;;;;;;4986631;28;20022;-78
2022/08/04 09:07:03;;;;;;;0.17;0.17;;;35.90;48.60;;;;;;5004134;28;20029;-78
2022/08/04 09:09:51;;;;;;;0.40;0.40;;;35.70;48.70;;;;;;4985061;28;20041;-77
2022/08/04 09:12:57;;;;;;;17.67;1.50;;;36.00;49.80;;;;;;4986527;28;20218;-79
2022/08/04 09:15:35;;;;;;;0.32;0.20;;;36.60;49.10;;;;;;4986774;28;20022;-77
2022/08/04 09:18:26;;;;;;;0.20;0.20;;;36.60;47.40;;;;;;4986739;28;20030;-79
2022/08/04 09:21:05;;;;;;;0.47;0.30;;;36.80;47.80;;;;;;4986024;28;20040;-78
2022/08/04 09:23:57;;;;;;;1.88;0.68;;;36.60;47.40;;;;;;5001299;28;20246;-83
2022/08/04 09:26:32;;;;;;;0.45;0.45;;;36.20;47.60;;;;;;5003054;28;20029;-75
2022/08/04 09:29:19;;;;;;;0.77;0.20;;;36.60;46.70;;;;;;4985690;28;20033;-81
2022/08/04 09:32:15;;;;;;;0.10;0.10;;;36.00;43.90;;;;;;5003285;28;20018;-77
2022/08/04 09:35:02;;;;;;;0.20;0.20;;;35.70;46.00;;;;;;4986286;28;20041;-78
2022/08/04 09:37:43;;;;;;;0.30;0.20;;;35.80;44.20;;;;;;5007088;28;20050;-77
2022/08/04 09:40:08;;;;;;;0.13;0.13;;;35.60;44.30;;;;;;5007603;28;20026;-81
2022/08/04 09:42:49;;;;;;;0.00;0.00;;;35.30;44.40;;;;;;5007390;28;20021;-78
2022/08/04 09:45:38;;;;;;;0.40;0.28;;;35.40;44.60;;;;;;4989817;28;20025;-77
2022/08/04 09:48:11;;;;;;;;;;;35.40;46.70;;;;;;4989740;28;20026;-78
2022/08/04 09:50:44;;;;;;;0.10;0.10;;;35.50;44.30;;;;;;4989454;28;19923;-79
2022/08/04 09:53:29;;;;;;;0.10;0.10;;;35.70;43.50;;;;;;5006390;28;20302;-78
2022/08/04 09:56:19;;;;;;;0.75;0.10;;;35.80;42.80;;;;;;5007087;28;20014;-78
2022/08/04 09:59:42;;;;;;;0.38;0.17;;;36.10;42.80;;;;;;4989877;28;20101;-79
2022/08/04 10:02:12;;;;;;;0.80;0.10;;;36.50;43.80;;;;;;4989347;28;20076;-78
2022/08/04 10:04:41;;;;;;;0.10;0.00;;;36.80;42.00;;;;;;4985215;28;20024;-78
2022/08/04 10:07:16;;;;;;;0.00;0.00;;;36.60;44.40;;;;;;4988608;28;20030;-77
2022/08/04 10:09:58;;;;;;;0.20;0.10;;;;;;;;;;5007257;28;20061;-80
2022/08/04 10:12:24;;;;;;;0.57;0.55;;;35.80;42.70;;;;;;4989843;28;20069;-78
2022/08/04 10:15:10;;;;;;;0.20;0.20;;;36.10;44.30;;;;;;4989429;28;20319;-79
2022/08/04 10:17:50;;;;;;;1.90;0.10;;;35.90;41.80;;;;;;5005560;28;20118;-77
2022/08/04 10:20:40;;;;;;;0.10;0.10;;;35.80;42.30;;;;;;5006900;28;20061;-77
2022/08/04 10:23:32;;;;;;;0.38;0.38;;;35.80;42.30;;;;;;5006460;28;20023;-77
2022/08/04 10:26:33;;;;;;;0.00;0.00;;;36.20;44.10;;;;;;5007001;28;20086;-76
2022/08/04 10:29:28;;;;;;;0.00;0.00;;;36.50;41.10;;;;;;5006674;28;20331;-81
2022/08/04 10:32:02;;;;;;;0.30;0.20;;;36.90;40.50;;;;;;4984995;28;20067;-78
2022/08/04 10:34:35;;;;;;;0.75;0.40;;;36.90;41.90;;;;;;4989326;28;20093;-77
2022/08/04 10:37:23;;;;;;;0.08;0.08;;;36.40;41.20;;;;;;5004704;28;20121;-80
2022/08/04 10:40:46;;;;;;;0.10;0.10;;;36.70;41.30;;;;;;4989051;28;20049;-85
2022/08/04 10:43:32;;;;;;;0.10;0.10;;;36.80;42.50;;;;;;4978800;28;20058;-78
2022/08/04 10:46:12;;;;;;;6.95;0.50;;;;;;;;;;5005930;28;20084;-78
2022/08/04 10:49:03;;;;;;;0.20;0.10;;;37.10;40.40;;;;;;4988958;28;20214;-80
2022/08/04 10:51:53;;;;;;;0.10;0.10;;;37.50;41.10;;;;;;4988920;28;20093;-82
2022/08/04 10:54:33;;;;;;;0.05;0.03;;;36.90;40.10;;;;;;4988630;28;20022;-78
2022/08/04 10:57:07;;;;;;;0.00;0.00;;;36.90;40.80;;;;;;5005558;28;20092;-78
2022/08/04 11:00:06;;;;;;;0.43;0.43;;;37.10;41.80;;;;;;4988749;28;20024;-84
2022/08/04 11:02:50;;;;;;;0.10;0.10;;;37.50;41.10;;;;;;5004672;28;20036;-85
2022/08/04 11:05:40;;;;;;;0.65;0.63;;;37.80;39.70;;;;;;5005428;28;20030;-79
2022/08/04 11:08:34;;;;;;;1.75;0.15;;;37.80;40.00;;;;;;4999640;28;20049;-77
2022/08/04 11:11:11;;;;;;;0.60;0.22;;;38.10;39.70;;;;;;5005311;28;20030;-76
2022/08/04 11:14:05;;;;;;;0.55;0.43;;;37.70;39.50;;;;;;5005810;28;20018;-77
2022/08/04 11:16:47;;;;;;;0.10;0.10;;;37.30;39.50;;;;;;4999505;28;20358;-78
2022/08/04 11:19:55;;;;;;;0.60;0.30;;;37.40;39.50;;;;;;4988400;28;20023;-78
2022/08/04 11:22:24;;;;;;;0.17;0.17;;;37.10;40.90;;;;;;4968494;28;20030;-78
2022/08/04 11:25:00;;;;;;;0.20;0.20;;;37.10;40.20;;;;;;5005713;28;20306;-78
2022/08/04 11:27:44;;;;;;;0.35;0.10;;;37.20;40.30;;;;;;4987870;28;20281;-77
2022/08/04 11:30:13;;;;;;;0.10;0.10;;;37.30;40.20;;;;;;4987283;28;20032;-77
2022/08/04 11:33:09;;;;;;;1.90;1.58;;;37.60;40.40;;;;;;4988016;28;20052;-78
2022/08/04 11:35:49;;;;;;;0.30;0.30;;;38.30;41.00;;;;;;5005452;28;20014;-78
2022/08/04 11:38:47;;;;;;;0.45;0.45;;;38.40;41.00;;;;;;4987760;28;20093;-77
2022/08/04 11:41:18;;;;;;;;;;;38.80;38.80;;;;;;5005531;28;20020;-78
2022/08/04 11:43:57;;;;;;;0.10;0.10;;;38.90;39.20;;;;;;5005080;28;19901;-77
2022/08/04 11:46:39;;;;;;;0.20;0.20;;;38.90;38.30;;;;;;5005365;28;20023;-78
2022/08/04 11:49:21;;;;;;;1.20;0.85;;;39.20;38.30;;;;;;5005169;28;20082;-77
2022/08/04 11:51:49;;;;;;;0.03;0.03;;;39.20;38.30;;;;;;4987940;28;20092;-77
2022/08/04 11:54:26;;;;;;;0.32;0.20;;;39.50;38.60;;;;;;5005291;28;20019;-78
2022/08/04 11:57:02;;;;;;;0.20;0.17;;;39.70;36.70;;;;;;5004576;28;20034;-78
2022/08/04 11:59:29;;;;;;;0.70;0.43;;;39.40;37.60;;;;;;4986825;28;20026;-77
2022/08/04 12:02:19;;;;;;;0.20;0.20;;;39.30;38.00;;;;;;5004798;28;20214;-78
2022/08/04 12:04:59;;;;;;;0.10;0.10;;;39.20;37.60;;;;;;4987067;28;20137;-78
2022/08/04 12:07:37;;;;;;;0.00;0.00;;;39.40;38.60;;;;;;5004861;28;20026;-81
2022/08/04 12:10:14;;;;;;;0.10;0.10;;;40.30;37.20;;;;;;5004891;28;20057;-81
2022/08/04 12:13:02;;;;;;;0.10;0.10;;;41.40;37.30;;;;;;5004996;28;20018;-81
2022/08/04 12:15:39;;;;;;;0.20;0.20;;;42.00;35.80;;;;;;5004898;28;20041;-80
2022/08/04 12:18:26;;;;;;;0.17;0.17;;;42.20;35.60;;;;;;4987060;28;20038;-82
2022/08/04 12:20:59;;;;;;;0.08;0.08;;;42.20;36.10;;;;;;5004973;28;20045;-83
2022/08/04 12:23:42;;;;;;;0.10;0.10;;;42.00;35.90;;;;;;5003894;28;20038;-76
2022/08/04 12:26:16;;;;;;;0.30;0.05;;;41.50;36.30;;;;;;5003696;28;20027;-77
2022/08/04 12:28:51;;;;;;;0.20;0.20;;;41.10;36.00;;;;;;5003747;28;20041;-76
2022/08/04 12:31:50;;;;;;;1.45;0.68;;;40.80;36.20;;;;;;5002389;28;20084;-76
2022/08/04 12:34:52;;;;;;;0.10;0.10;;;40.90;36.70;;;;;;4996541;28;20026;-77
2022/08/04 12:37:41;;;;;;;0.10;0.10;;;40.30;37.20;;;;;;4968537;28;20102;-77
2022/08/04 12:40:10;;;;;;;;;;;39.40;34.50;;;;;;4996738;28;20017;-77
2022/08/04 12:42:47;;;;;;;0.10;0.10;;;41.00;35.30;;;;;;4995132;28;19909;-77
2022/08/04 12:45:15;;;;;;;0.10;0.10;;;41.50;35.50;;;;;;4994945;28;20026;-75
2022/08/04 12:47:42;;;;;;;0.30;0.20;;;41.80;35.30;;;;;;4994659;28;20084;-78
2022/08/04 12:50:12;;;;;;;0.80;0.10;;;42.30;35.40;;;;;;4995701;28;20034;-76
2022/08/04 12:53:00;;;;;;;1.35;0.20;;;42.50;34.90;;;;;;4979168;28;20113;-76
2022/08/04 12:55:28;;;;;;;0.40;0.38;;;41.60;35.90;;;;;;4997591;28;20105;-81
2022/08/04 12:57:55;;;;;;;3.72;2.22;;;40.80;35.30;;;;;;4976394;28;20043;-76
2022/08/04 13:00:39;;;;;;;0.10;0.10;;;40.20;35.30;;;;;;4994667;28;20026;-76
2022/08/04 13:03:08;;;;;;;0.10;0.10;;;40.50;36.50;;;;;;4995144;28;20133;-82
2022/08/04 13:05:34;;;;;;;0.40;0.13;;;40.80;35.90;;;;;;4994897;28;20022;-80
2022/08/04 13:08:03;;;;;;;0.73;0.20;;;41.40;35.80;;;;;;4994627;28;20025;-76
2022/08/04 13:10:30;;;;;;;0.10;0.10;;;40.90;34.60;;;;;;4997298;28;20112;-76
2022/08/04 13:12:59;;;;;;;0.70;0.20;;;40.60;35.30;;;;;;4997381;28;20068;-76
2022/08/04 13:15:25;;;;;;;;;;;40.70;34.00;;;;;;4998940;28;20023;-76
2022/08/04 13:18:07;;;;;;;0.10;0.10;;;41.10;34.40;;;;;;4998087;28;19918;-76
2022/08/04 13:20:36;;;;;;;0.20;0.20;;;41.50;34.50;;;;;;4999106;28;20019;-76
2022/08/04 13:23:16;;;;;;;0.13;0.10;;;41.30;33.90;;;;;;4998233;28;20548;-77
2022/08/04 13:25:48;;;;;;;0.10;0.10;;;41.90;33.40;;;;;;4997766;28;20502;-76
2022/08/04 13:28:26;;;;;;;0.40;0.10;;;42.10;32.40;;;;;;4997477;28;20034;-77
2022/08/04 13:30:53;;;;;;;;;;;42.10;31.40;;;;;;4997925;28;20026;-77
2022/08/04 13:33:19;;;;;;;0.10;0.10;;;42.10;32.20;;;;;;4980294;28;19963;-77
2022/08/04 13:35:47;;;;;;;0.15;0.15;;;42.40;32.60;;;;;;4998095;28;20491;-76
2022/08/04 13:38:15;;;;;;;0.13;0.13;;;42.80;33.70;;;;;;4997579;28;20158;-77
2022/08/04 13:40:43;;;;;;;0.10;0.10;;;43.20;32.40;;;;;;4998110;28;20046;-76
2022/08/04 13:43:20;;;;;;;0.10;0.10;;;44.00;32.10;;;;;;4998298;28;20097;-76
2022/08/04 13:45:57;;;;;;;0.13;0.13;;;44.00;31.20;;;;;;4997577;28;20026;-76
2022/08/04 13:48:23;;;;;;;0.40;0.20;;;42.50;31.80;;;;;;4997765;28;20014;-76